sensor_id;sensor_type;location;lat;lon;timestamp;temperature;humidity
79750;SHT31;69233;51.968;5.658;2023-07-13T00:01:22;20.8;57.0
79750;SHT31;69233;51.968;5.658;2023-07-13T00:03:51;20.7;56.3
79750;SHT31;69233;51.968;5.658;2023-07-13T00:06:21;20.7;56.9
79750;SHT31;69233;51.968;5.658;2023-07-13T00:08:50;20.7;56.9
79750;SHT31;69233;51.968;5.658;2023-07-13T00:11:20;20.7;56.2
79750;SHT31;69233;51.968;5.658;2023-07-13T00:13:52;20.7;56.4
79750;SHT31;69233;51.968;5.658;2023-07-13T00:16:21;20.7;57.0
79750;SHT31;69233;51.968;5.658;2023-07-13T00:18:50;20.6;56.4
79750;SHT31;69233;51.968;5.658;2023-07-13T00:21:20;20.6;56.0
79750;SHT31;69233;51.968;5.658;2023-07-13T00:23:51;20.6;56.8
79750;SHT31;69233;51.968;5.658;2023-07-13T00:26:21;20.6;56.5
79750;SHT31;69233;51.968;5.658;2023-07-13T00:28:52;20.5;57.0
79750;SHT31;69233;51.968;5.658;2023-07-13T00:31:22;20.5;56.9
79750;SHT31;69233;51.968;5.658;2023-07-13T00:33:51;20.5;56.9
79750;SHT31;69233;51.968;5.658;2023-07-13T00:36:21;20.5;57.3
79750;SHT31;69233;51.968;5.658;2023-07-13T00:38:50;20.4;57.5
79750;SHT31;69233;51.968;5.658;2023-07-13T00:41:20;20.4;57.2
79750;SHT31;69233;51.968;5.658;2023-07-13T00:43:52;20.4;56.8
79750;SHT31;69233;51.968;5.658;2023-07-13T00:46:27;20.4;57.0
79750;SHT31;69233;51.968;5.658;2023-07-13T00:48:59;20.3;57.4
79750;SHT31;69233;51.968;5.658;2023-07-13T00:51:39;20.3;57.5
79750;SHT31;69233;51.968;5.658;2023-07-13T00:54:18;20.3;57.7
79750;SHT31;69233;51.968;5.658;2023-07-13T00:56:51;20.3;57.7
79750;SHT31;69233;51.968;5.658;2023-07-13T00:59:24;20.2;57.6
79750;SHT31;69233;51.968;5.658;2023-07-13T01:01:54;20.2;57.5
79750;SHT31;69233;51.968;5.658;2023-07-13T01:04:25;20.2;58.0
79750;SHT31;69233;51.968;5.658;2023-07-13T01:06:56;20.2;58.0
79750;SHT31;69233;51.968;5.658;2023-07-13T01:09:27;20.2;58.0
79750;SHT31;69233;51.968;5.658;2023-07-13T01:11:57;20.1;58.1
79750;SHT31;69233;51.968;5.658;2023-07-13T01:14:27;20.1;58.2
79750;SHT31;69233;51.968;5.658;2023-07-13T01:16:56;20.1;57.8
79750;SHT31;69233;51.968;5.658;2023-07-13T01:19:33;20.1;57.9
79750;SHT31;69233;51.968;5.658;2023-07-13T01:22:08;20.1;57.8
79750;SHT31;69233;51.968;5.658;2023-07-13T01:24:43;20.1;58.2
79750;SHT31;69233;51.968;5.658;2023-07-13T01:27:16;20.1;58.4
79750;SHT31;69233;51.968;5.658;2023-07-13T01:29:45;20.1;58.2
79750;SHT31;69233;51.968;5.658;2023-07-13T01:32:17;20.1;57.4
79750;SHT31;69233;51.968;5.658;2023-07-13T01:34:52;20.0;57.9
79750;SHT31;69233;51.968;5.658;2023-07-13T01:37:24;20.0;58.3
79750;SHT31;69233;51.968;5.658;2023-07-13T01:39:54;20.0;57.6
79750;SHT31;69233;51.968;5.658;2023-07-13T01:42:25;20.0;58.2
79750;SHT31;69233;51.968;5.658;2023-07-13T01:44:55;20.0;58.5
79750;SHT31;69233;51.968;5.658;2023-07-13T01:47:24;19.9;58.3
79750;SHT31;69233;51.968;5.658;2023-07-13T01:49:55;19.9;58.2
79750;SHT31;69233;51.968;5.658;2023-07-13T01:52:24;19.9;58.7
79750;SHT31;69233;51.968;5.658;2023-07-13T01:54:54;19.9;58.8
79750;SHT31;69233;51.968;5.658;2023-07-13T01:57:23;19.9;58.9
79750;SHT31;69233;51.968;5.658;2023-07-13T01:59:53;19.9;58.5
79750;SHT31;69233;51.968;5.658;2023-07-13T02:02:23;19.9;58.4
79750;SHT31;69233;51.968;5.658;2023-07-13T02:04:52;19.8;58.6
79750;SHT31;69233;51.968;5.658;2023-07-13T02:07:22;19.8;58.8
79750;SHT31;69233;51.968;5.658;2023-07-13T02:09:51;19.8;58.6
79750;SHT31;69233;51.968;5.658;2023-07-13T02:12:21;19.8;58.7
79750;SHT31;69233;51.968;5.658;2023-07-13T02:14:50;19.8;58.6
79750;SHT31;69233;51.968;5.658;2023-07-13T02:17:20;19.8;58.3
79750;SHT31;69233;51.968;5.658;2023-07-13T02:19:50;19.7;58.1
79750;SHT31;69233;51.968;5.658;2023-07-13T02:22:20;19.7;58.6
79750;SHT31;69233;51.968;5.658;2023-07-13T02:24:50;19.7;59.1
79750;SHT31;69233;51.968;5.658;2023-07-13T02:27:20;19.6;59.2
79750;SHT31;69233;51.968;5.658;2023-07-13T02:29:49;19.6;59.2
79750;SHT31;69233;51.968;5.658;2023-07-13T02:32:19;19.6;59.3
79750;SHT31;69233;51.968;5.658;2023-07-13T02:34:48;19.6;59.5
79750;SHT31;69233;51.968;5.658;2023-07-13T02:37:18;19.6;59.7
79750;SHT31;69233;51.968;5.658;2023-07-13T02:39:48;19.6;59.7
79750;SHT31;69233;51.968;5.658;2023-07-13T02:42:18;19.6;59.5
79750;SHT31;69233;51.968;5.658;2023-07-13T02:44:47;19.5;59.4
79750;SHT31;69233;51.968;5.658;2023-07-13T02:47:18;19.5;59.7
79750;SHT31;69233;51.968;5.658;2023-07-13T02:49:47;19.5;59.5
79750;SHT31;69233;51.968;5.658;2023-07-13T02:52:19;19.5;60.1
79750;SHT31;69233;51.968;5.658;2023-07-13T02:54:49;19.4;60.2
79750;SHT31;69233;51.968;5.658;2023-07-13T02:57:18;19.4;60.0
79750;SHT31;69233;51.968;5.658;2023-07-13T02:59:48;19.4;60.3
79750;SHT31;69233;51.968;5.658;2023-07-13T03:02:18;19.4;60.3
79750;SHT31;69233;51.968;5.658;2023-07-13T03:04:47;19.3;60.8
79750;SHT31;69233;51.968;5.658;2023-07-13T03:07:18;19.3;61.1
79750;SHT31;69233;51.968;5.658;2023-07-13T03:09:49;19.3;60.8
79750;SHT31;69233;51.968;5.658;2023-07-13T03:12:23;19.3;61.2
79750;SHT31;69233;51.968;5.658;2023-07-13T03:14:52;19.3;61.0
79750;SHT31;69233;51.968;5.658;2023-07-13T03:17:21;19.2;61.0
79750;SHT31;69233;51.968;5.658;2023-07-13T03:19:51;19.2;61.1
79750;SHT31;69233;51.968;5.658;2023-07-13T03:22:21;19.2;61.7
79750;SHT31;69233;51.968;5.658;2023-07-13T03:24:51;19.2;61.3
79750;SHT31;69233;51.968;5.658;2023-07-13T03:27:20;19.2;61.6
79750;SHT31;69233;51.968;5.658;2023-07-13T03:29:50;19.2;62.1
79750;SHT31;69233;51.968;5.658;2023-07-13T03:32:19;19.1;61.7
79750;SHT31;69233;51.968;5.658;2023-07-13T03:34:48;19.1;61.9
79750;SHT31;69233;51.968;5.658;2023-07-13T03:37:20;19.1;62.2
79750;SHT31;69233;51.968;5.658;2023-07-13T03:39:49;19.1;62.1
79750;SHT31;69233;51.968;5.658;2023-07-13T03:42:19;19.1;62.3
79750;SHT31;69233;51.968;5.658;2023-07-13T03:44:48;19.1;62.3
79750;SHT31;69233;51.968;5.658;2023-07-13T03:47:20;19.1;62.3
79750;SHT31;69233;51.968;5.658;2023-07-13T03:49:49;19.1;62.2
79750;SHT31;69233;51.968;5.658;2023-07-13T03:52:18;19.1;62.2
79750;SHT31;69233;51.968;5.658;2023-07-13T03:54:48;19.1;62.6
79750;SHT31;69233;51.968;5.658;2023-07-13T03:57:18;19.0;62.5
79750;SHT31;69233;51.968;5.658;2023-07-13T03:59:47;19.0;62.7
79750;SHT31;69233;51.968;5.658;2023-07-13T04:02:17;19.0;62.6
79750;SHT31;69233;51.968;5.658;2023-07-13T04:04:47;19.0;62.5
79750;SHT31;69233;51.968;5.658;2023-07-13T04:07:16;19.0;62.7
79750;SHT31;69233;51.968;5.658;2023-07-13T04:09:46;19.0;62.8
79750;SHT31;69233;51.968;5.658;2023-07-13T04:12:15;19.0;63.0
79750;SHT31;69233;51.968;5.658;2023-07-13T04:14:46;19.0;62.7
79750;SHT31;69233;51.968;5.658;2023-07-13T04:17:15;19.0;63.0
79750;SHT31;69233;51.968;5.658;2023-07-13T04:19:44;18.9;62.9
79750;SHT31;69233;51.968;5.658;2023-07-13T04:22:14;18.9;63.1
79750;SHT31;69233;51.968;5.658;2023-07-13T04:24:44;18.9;63.2
79750;SHT31;69233;51.968;5.658;2023-07-13T04:27:13;18.9;63.7
79750;SHT31;69233;51.968;5.658;2023-07-13T04:29:42;18.8;63.5
79750;SHT31;69233;51.968;5.658;2023-07-13T04:32:12;18.8;64.0
79750;SHT31;69233;51.968;5.658;2023-07-13T04:34:41;18.8;64.1
79750;SHT31;69233;51.968;5.658;2023-07-13T04:37:11;18.8;64.3
79750;SHT31;69233;51.968;5.658;2023-07-13T04:39:40;18.8;64.0
79750;SHT31;69233;51.968;5.658;2023-07-13T04:42:10;18.9;63.9
79750;SHT31;69233;51.968;5.658;2023-07-13T04:44:39;18.9;63.6
79750;SHT31;69233;51.968;5.658;2023-07-13T04:47:09;18.9;63.6
79750;SHT31;69233;51.968;5.658;2023-07-13T04:49:38;18.9;64.1
79750;SHT31;69233;51.968;5.658;2023-07-13T04:52:08;18.9;63.9
79750;SHT31;69233;51.968;5.658;2023-07-13T04:54:38;18.9;64.1
79750;SHT31;69233;51.968;5.658;2023-07-13T04:57:08;18.9;64.6
79750;SHT31;69233;51.968;5.658;2023-07-13T04:59:37;18.9;64.6
79750;SHT31;69233;51.968;5.658;2023-07-13T05:02:08;19.0;64.9
79750;SHT31;69233;51.968;5.658;2023-07-13T05:04:37;19.0;64.3
79750;SHT31;69233;51.968;5.658;2023-07-13T05:07:07;19.0;63.9
79750;SHT31;69233;51.968;5.658;2023-07-13T05:09:36;19.0;64.0
79750;SHT31;69233;51.968;5.658;2023-07-13T05:12:08;19.0;64.2
79750;SHT31;69233;51.968;5.658;2023-07-13T05:14:38;19.0;64.9
79750;SHT31;69233;51.968;5.658;2023-07-13T05:17:08;19.0;64.8
79750;SHT31;69233;51.968;5.658;2023-07-13T05:19:37;19.0;65.2
79750;SHT31;69233;51.968;5.658;2023-07-13T05:22:07;19.0;65.7
79750;SHT31;69233;51.968;5.658;2023-07-13T05:24:36;19.0;66.0
79750;SHT31;69233;51.968;5.658;2023-07-13T05:27:06;19.1;65.7
79750;SHT31;69233;51.968;5.658;2023-07-13T05:29:36;19.1;65.6
79750;SHT31;69233;51.968;5.658;2023-07-13T05:32:06;19.1;65.3
79750;SHT31;69233;51.968;5.658;2023-07-13T05:34:36;19.1;65.6
79750;SHT31;69233;51.968;5.658;2023-07-13T05:37:05;19.2;65.6
79750;SHT31;69233;51.968;5.658;2023-07-13T05:39:35;19.2;65.3
79750;SHT31;69233;51.968;5.658;2023-07-13T05:42:05;19.2;65.4
79750;SHT31;69233;51.968;5.658;2023-07-13T05:44:35;19.3;65.2
79750;SHT31;69233;51.968;5.658;2023-07-13T05:47:05;19.3;65.2
79750;SHT31;69233;51.968;5.658;2023-07-13T05:49:34;19.3;65.5
79750;SHT31;69233;51.968;5.658;2023-07-13T05:52:04;19.3;65.9
79750;SHT31;69233;51.968;5.658;2023-07-13T05:54:34;19.4;65.4
79750;SHT31;69233;51.968;5.658;2023-07-13T05:57:03;19.4;65.7
79750;SHT31;69233;51.968;5.658;2023-07-13T05:59:33;19.4;65.8
79750;SHT31;69233;51.968;5.658;2023-07-13T06:02:03;19.4;66.0
79750;SHT31;69233;51.968;5.658;2023-07-13T06:04:32;19.4;66.8
79750;SHT31;69233;51.968;5.658;2023-07-13T06:07:02;19.5;66.5
79750;SHT31;69233;51.968;5.658;2023-07-13T06:09:31;19.5;67.2
79750;SHT31;69233;51.968;5.658;2023-07-13T06:12:01;19.6;66.6
79750;SHT31;69233;51.968;5.658;2023-07-13T06:14:30;19.6;66.8
79750;SHT31;69233;51.968;5.658;2023-07-13T06:17:00;19.7;67.3
79750;SHT31;69233;51.968;5.658;2023-07-13T06:19:29;19.8;66.8
79750;SHT31;69233;51.968;5.658;2023-07-13T06:21:58;19.8;66.8
79750;SHT31;69233;51.968;5.658;2023-07-13T06:24:28;19.9;67.2
79750;SHT31;69233;51.968;5.658;2023-07-13T06:26:57;19.9;66.8
79750;SHT31;69233;51.968;5.658;2023-07-13T06:29:27;20.0;66.3
79750;SHT31;69233;51.968;5.658;2023-07-13T06:31:58;20.1;66.2
79750;SHT31;69233;51.968;5.658;2023-07-13T06:34:28;20.1;66.1
79750;SHT31;69233;51.968;5.658;2023-07-13T06:36:57;20.2;66.6
79750;SHT31;69233;51.968;5.658;2023-07-13T06:39:27;20.2;66.5
79750;SHT31;69233;51.968;5.658;2023-07-13T06:41:56;20.3;66.5
79750;SHT31;69233;51.968;5.658;2023-07-13T06:44:25;20.3;67.0
79750;SHT31;69233;51.968;5.658;2023-07-13T06:46:55;20.4;67.4
79750;SHT31;69233;51.968;5.658;2023-07-13T06:49:24;20.5;66.8
79750;SHT31;69233;51.968;5.658;2023-07-13T06:51:54;20.6;65.2
79750;SHT31;69233;51.968;5.658;2023-07-13T06:54:23;20.7;64.9
79750;SHT31;69233;51.968;5.658;2023-07-13T06:56:53;20.7;65.0
79750;SHT31;69233;51.968;5.658;2023-07-13T06:59:24;20.8;64.2
79750;SHT31;69233;51.968;5.658;2023-07-13T07:01:53;20.8;64.3
79750;SHT31;69233;51.968;5.658;2023-07-13T07:04:23;20.8;64.2
79750;SHT31;69233;51.968;5.658;2023-07-13T07:06:52;20.8;64.2
79750;SHT31;69233;51.968;5.658;2023-07-13T07:09:22;20.9;63.7
79750;SHT31;69233;51.968;5.658;2023-07-13T07:11:51;20.9;64.5
79750;SHT31;69233;51.968;5.658;2023-07-13T07:14:21;20.9;64.1
79750;SHT31;69233;51.968;5.658;2023-07-13T07:16:50;21.0;63.7
79750;SHT31;69233;51.968;5.658;2023-07-13T07:19:20;21.0;63.3
79750;SHT31;69233;51.968;5.658;2023-07-13T07:21:50;21.0;63.3
79750;SHT31;69233;51.968;5.658;2023-07-13T07:24:19;21.0;63.6
79750;SHT31;69233;51.968;5.658;2023-07-13T07:26:48;21.1;63.3
79750;SHT31;69233;51.968;5.658;2023-07-13T07:29:18;21.1;63.9
79750;SHT31;69233;51.968;5.658;2023-07-13T07:31:49;21.1;64.1
79750;SHT31;69233;51.968;5.658;2023-07-13T07:34:18;21.1;63.6
79750;SHT31;69233;51.968;5.658;2023-07-13T07:36:48;21.2;63.7
79750;SHT31;69233;51.968;5.658;2023-07-13T07:39:18;21.2;63.9
79750;SHT31;69233;51.968;5.658;2023-07-13T07:41:47;21.3;63.8
79750;SHT31;69233;51.968;5.658;2023-07-13T07:44:16;21.3;63.8
79750;SHT31;69233;51.968;5.658;2023-07-13T07:46:46;21.4;63.0
79750;SHT31;69233;51.968;5.658;2023-07-13T07:49:16;21.4;62.8
79750;SHT31;69233;51.968;5.658;2023-07-13T07:51:45;21.5;63.8
79750;SHT31;69233;51.968;5.658;2023-07-13T07:54:15;21.5;63.1
79750;SHT31;69233;51.968;5.658;2023-07-13T07:56:45;21.6;63.1
79750;SHT31;69233;51.968;5.658;2023-07-13T07:59:14;21.7;63.6
79750;SHT31;69233;51.968;5.658;2023-07-13T08:01:44;21.8;64.2
79750;SHT31;69233;51.968;5.658;2023-07-13T08:04:15;21.9;63.6
79750;SHT31;69233;51.968;5.658;2023-07-13T08:06:44;22.0;62.5
79750;SHT31;69233;51.968;5.658;2023-07-13T08:09:14;22.1;63.3
79750;SHT31;69233;51.968;5.658;2023-07-13T08:11:43;22.2;63.3
79750;SHT31;69233;51.968;5.658;2023-07-13T08:14:13;22.4;61.3
79750;SHT31;69233;51.968;5.658;2023-07-13T08:16:43;22.5;63.2
79750;SHT31;69233;51.968;5.658;2023-07-13T08:19:13;22.6;62.6
79750;SHT31;69233;51.968;5.658;2023-07-13T08:21:43;22.8;60.9
79750;SHT31;69233;51.968;5.658;2023-07-13T08:24:12;22.9;59.3
79750;SHT31;69233;51.968;5.658;2023-07-13T08:26:42;23.0;59.9
79750;SHT31;69233;51.968;5.658;2023-07-13T08:29:11;23.1;59.2
79750;SHT31;69233;51.968;5.658;2023-07-13T08:31:41;23.2;57.6
79750;SHT31;69233;51.968;5.658;2023-07-13T08:34:10;23.2;57.5
79750;SHT31;69233;51.968;5.658;2023-07-13T08:36:42;23.2;58.0
79750;SHT31;69233;51.968;5.658;2023-07-13T08:39:11;23.2;58.0
79750;SHT31;69233;51.968;5.658;2023-07-13T08:41:41;23.3;58.7
79750;SHT31;69233;51.968;5.658;2023-07-13T08:44:21;23.3;57.8
79750;SHT31;69233;51.968;5.658;2023-07-13T08:46:53;23.4;56.6
79750;SHT31;69233;51.968;5.658;2023-07-13T08:49:26;23.5;56.2
79750;SHT31;69233;51.968;5.658;2023-07-13T08:52:01;23.7;54.4
79750;SHT31;69233;51.968;5.658;2023-07-13T08:54:35;23.8;53.4
79750;SHT31;69233;51.968;5.658;2023-07-13T08:57:12;23.9;54.5
79750;SHT31;69233;51.968;5.658;2023-07-13T08:59:43;24.0;56.4
79750;SHT31;69233;51.968;5.658;2023-07-13T09:02:25;24.0;53.6
79750;SHT31;69233;51.968;5.658;2023-07-13T09:05:01;24.1;53.7
79750;SHT31;69233;51.968;5.658;2023-07-13T09:07:43;24.1;54.0
79750;SHT31;69233;51.968;5.658;2023-07-13T09:10:21;24.1;54.2
79750;SHT31;69233;51.968;5.658;2023-07-13T09:13:05;24.1;54.4
79750;SHT31;69233;51.968;5.658;2023-07-13T09:15:41;24.0;55.0
79750;SHT31;69233;51.968;5.658;2023-07-13T09:18:18;24.0;55.0
79750;SHT31;69233;51.968;5.658;2023-07-13T09:20:54;23.9;55.5
79750;SHT31;69233;51.968;5.658;2023-07-13T09:23:28;23.9;55.1
79750;SHT31;69233;51.968;5.658;2023-07-13T09:26:04;23.8;54.9
79750;SHT31;69233;51.968;5.658;2023-07-13T09:28:39;23.7;56.7
79750;SHT31;69233;51.968;5.658;2023-07-13T09:31:14;23.6;58.0
79750;SHT31;69233;51.968;5.658;2023-07-13T09:33:44;23.5;58.8
79750;SHT31;69233;51.968;5.658;2023-07-13T09:36:20;23.4;59.5
79750;SHT31;69233;51.968;5.658;2023-07-13T09:38:59;23.4;59.6
79750;SHT31;69233;51.968;5.658;2023-07-13T09:41:48;23.4;59.9
79750;SHT31;69233;51.968;5.658;2023-07-13T09:44:18;23.3;59.3
79750;SHT31;69233;51.968;5.658;2023-07-13T09:46:52;23.3;61.7
79750;SHT31;69233;51.968;5.658;2023-07-13T09:49:26;23.3;62.9
79750;SHT31;69233;51.968;5.658;2023-07-13T09:52:02;23.4;61.1
79750;SHT31;69233;51.968;5.658;2023-07-13T09:54:33;23.6;59.0
79750;SHT31;69233;51.968;5.658;2023-07-13T09:57:13;23.8;59.8
79750;SHT31;69233;51.968;5.658;2023-07-13T09:59:45;24.1;58.6
79750;SHT31;69233;51.968;5.658;2023-07-13T10:02:26;24.3;58.7
79750;SHT31;69233;51.968;5.658;2023-07-13T10:05:02;24.6;59.5
79750;SHT31;69233;51.968;5.658;2023-07-13T10:07:40;24.9;54.2
79750;SHT31;69233;51.968;5.658;2023-07-13T10:10:17;25.1;55.3
79750;SHT31;69233;51.968;5.658;2023-07-13T10:12:48;25.3;52.7
79750;SHT31;69233;51.968;5.658;2023-07-13T10:15:21;25.3;52.9
79750;SHT31;69233;51.968;5.658;2023-07-13T10:17:53;25.4;54.9
79750;SHT31;69233;51.968;5.658;2023-07-13T10:20:26;25.3;55.0
79750;SHT31;69233;51.968;5.658;2023-07-13T10:23:01;25.3;53.4
79750;SHT31;69233;51.968;5.658;2023-07-13T10:25:36;25.2;54.2
79750;SHT31;69233;51.968;5.658;2023-07-13T10:28:25;25.1;55.7
79750;SHT31;69233;51.968;5.658;2023-07-13T10:30:53;25.0;54.6
79750;SHT31;69233;51.968;5.658;2023-07-13T10:33:24;25.0;55.4
79750;SHT31;69233;51.968;5.658;2023-07-13T10:35:59;24.9;56.0
79750;SHT31;69233;51.968;5.658;2023-07-13T10:38:31;24.9;55.1
79750;SHT31;69233;51.968;5.658;2023-07-13T10:41:04;25.0;54.0
79750;SHT31;69233;51.968;5.658;2023-07-13T10:43:39;25.0;53.6
79750;SHT31;69233;51.968;5.658;2023-07-13T10:46:14;25.0;53.6
79750;SHT31;69233;51.968;5.658;2023-07-13T10:48:48;25.1;52.7
79750;SHT31;69233;51.968;5.658;2023-07-13T10:51:19;25.2;51.7
79750;SHT31;69233;51.968;5.658;2023-07-13T10:54:14;25.3;52.1
79750;SHT31;69233;51.968;5.658;2023-07-13T10:56:46;25.6;52.7
79750;SHT31;69233;51.968;5.658;2023-07-13T10:59:18;25.9;50.6
79750;SHT31;69233;51.968;5.658;2023-07-13T11:01:55;26.1;50.8
79750;SHT31;69233;51.968;5.658;2023-07-13T11:04:27;26.2;51.5
79750;SHT31;69233;51.968;5.658;2023-07-13T11:07:10;26.3;53.2
79750;SHT31;69233;51.968;5.658;2023-07-13T11:09:41;26.5;50.8
79750;SHT31;69233;51.968;5.658;2023-07-13T11:15:09;26.8;49.3
79750;SHT31;69233;51.968;5.658;2023-07-13T11:17:49;27.0;49.0
79750;SHT31;69233;51.968;5.658;2023-07-13T11:20:24;27.3;48.9
79750;SHT31;69233;51.968;5.658;2023-07-13T11:23:16;27.6;49.9
79750;SHT31;69233;51.968;5.658;2023-07-13T11:25:45;27.9;47.9
79750;SHT31;69233;51.968;5.658;2023-07-13T11:28:22;28.3;47.0
79750;SHT31;69233;51.968;5.658;2023-07-13T11:31:02;28.7;47.2
79750;SHT31;69233;51.968;5.658;2023-07-13T11:33:50;29.0;45.3
79750;SHT31;69233;51.968;5.658;2023-07-13T11:36:24;29.4;43.7
79750;SHT31;69233;51.968;5.658;2023-07-13T11:39:02;29.8;43.7
79750;SHT31;69233;51.968;5.658;2023-07-13T11:41:37;30.0;42.5
79750;SHT31;69233;51.968;5.658;2023-07-13T11:44:13;30.1;41.1
79750;SHT31;69233;51.968;5.658;2023-07-13T11:46:50;30.1;40.1
79750;SHT31;69233;51.968;5.658;2023-07-13T11:49:22;30.0;41.3
79750;SHT31;69233;51.968;5.658;2023-07-13T11:51:54;29.9;40.8
79750;SHT31;69233;51.968;5.658;2023-07-13T11:54:28;29.6;41.3
79750;SHT31;69233;51.968;5.658;2023-07-13T11:57:02;29.4;40.8
79750;SHT31;69233;51.968;5.658;2023-07-13T11:59:40;29.1;42.0
79750;SHT31;69233;51.968;5.658;2023-07-13T12:02:17;29.0;44.2
79750;SHT31;69233;51.968;5.658;2023-07-13T12:04:50;29.0;43.5
79750;SHT31;69233;51.968;5.658;2023-07-13T12:07:22;29.1;43.5
79750;SHT31;69233;51.968;5.658;2023-07-13T12:09:51;29.3;41.8
79750;SHT31;69233;51.968;5.658;2023-07-13T12:12:31;29.6;43.2
79750;SHT31;69233;51.968;5.658;2023-07-13T12:15:05;30.0;42.8
79750;SHT31;69233;51.968;5.658;2023-07-13T12:17:35;30.4;41.4
79750;SHT31;69233;51.968;5.658;2023-07-13T12:20:20;30.8;40.3
79750;SHT31;69233;51.968;5.658;2023-07-13T12:22:51;31.0;40.2
79750;SHT31;69233;51.968;5.658;2023-07-13T12:25:27;31.1;39.2
79750;SHT31;69233;51.968;5.658;2023-07-13T12:27:58;31.1;37.5
79750;SHT31;69233;51.968;5.658;2023-07-13T12:30:30;31.1;36.1
79750;SHT31;69233;51.968;5.658;2023-07-13T12:33:08;31.1;38.3
79750;SHT31;69233;51.968;5.658;2023-07-13T12:35:46;31.1;38.7
79750;SHT31;69233;51.968;5.658;2023-07-13T12:38:16;31.1;36.8
79750;SHT31;69233;51.968;5.658;2023-07-13T12:40:52;31.1;36.8
79750;SHT31;69233;51.968;5.658;2023-07-13T12:43:23;31.1;37.5
79750;SHT31;69233;51.968;5.658;2023-07-13T12:45:58;31.2;35.6
79750;SHT31;69233;51.968;5.658;2023-07-13T12:48:37;31.3;37.7
79750;SHT31;69233;51.968;5.658;2023-07-13T12:51:13;31.4;37.7
79750;SHT31;69233;51.968;5.658;2023-07-13T12:53:47;31.6;35.8
79750;SHT31;69233;51.968;5.658;2023-07-13T12:56:22;31.8;35.9
79750;SHT31;69233;51.968;5.658;2023-07-13T12:58:56;31.9;37.1
79750;SHT31;69233;51.968;5.658;2023-07-13T13:01:29;32.1;35.1
79750;SHT31;69233;51.968;5.658;2023-07-13T13:04:02;32.2;35.1
79750;SHT31;69233;51.968;5.658;2023-07-13T13:06:36;32.2;35.6
79750;SHT31;69233;51.968;5.658;2023-07-13T13:09:12;32.3;34.7
79750;SHT31;69233;51.968;5.658;2023-07-13T13:11:42;32.4;35.7
79750;SHT31;69233;51.968;5.658;2023-07-13T13:14:13;32.5;36.1
79750;SHT31;69233;51.968;5.658;2023-07-13T13:16:47;32.6;36.2
79750;SHT31;69233;51.968;5.658;2023-07-13T13:19:21;32.8;33.7
79750;SHT31;69233;51.968;5.658;2023-07-13T13:21:56;32.8;35.2
79750;SHT31;69233;51.968;5.658;2023-07-13T13:24:27;32.9;35.7
79750;SHT31;69233;51.968;5.658;2023-07-13T13:26:57;32.9;34.3
79750;SHT31;69233;51.968;5.658;2023-07-13T13:29:31;32.9;34.0
79750;SHT31;69233;51.968;5.658;2023-07-13T13:32:00;32.9;34.6
79750;SHT31;69233;51.968;5.658;2023-07-13T13:34:30;32.8;33.7
79750;SHT31;69233;51.968;5.658;2023-07-13T13:37:00;32.8;35.0
79750;SHT31;69233;51.968;5.658;2023-07-13T13:39:33;32.7;33.3
79750;SHT31;69233;51.968;5.658;2023-07-13T13:42:04;32.6;32.4
79750;SHT31;69233;51.968;5.658;2023-07-13T13:44:33;32.5;33.8
79750;SHT31;69233;51.968;5.658;2023-07-13T13:47:08;32.4;34.2
79750;SHT31;69233;51.968;5.658;2023-07-13T13:49:41;32.2;34.0
79750;SHT31;69233;51.968;5.658;2023-07-13T13:52:11;32.0;36.0
79750;SHT31;69233;51.968;5.658;2023-07-13T13:54:40;31.9;35.9
79750;SHT31;69233;51.968;5.658;2023-07-13T13:57:14;31.8;35.7
79750;SHT31;69233;51.968;5.658;2023-07-13T13:59:43;31.8;36.3
79750;SHT31;69233;51.968;5.658;2023-07-13T14:02:28;31.7;36.9
79750;SHT31;69233;51.968;5.658;2023-07-13T14:05:25;31.6;36.4
79750;SHT31;69233;51.968;5.658;2023-07-13T14:07:57;31.5;34.8
79750;SHT31;69233;51.968;5.658;2023-07-13T14:10:27;31.4;36.1
79750;SHT31;69233;51.968;5.658;2023-07-13T14:12:57;31.2;35.1
79750;SHT31;69233;51.968;5.658;2023-07-13T14:15:28;31.1;36.3
79750;SHT31;69233;51.968;5.658;2023-07-13T14:17:59;31.0;33.9
79750;SHT31;69233;51.968;5.658;2023-07-13T14:20:28;30.9;33.9
79750;SHT31;69233;51.968;5.658;2023-07-13T14:22:58;30.8;34.7
79750;SHT31;69233;51.968;5.658;2023-07-13T14:25:29;30.7;36.9
79750;SHT31;69233;51.968;5.658;2023-07-13T14:28:00;30.7;37.9
79750;SHT31;69233;51.968;5.658;2023-07-13T14:30:34;30.6;37.7
79750;SHT31;69233;51.968;5.658;2023-07-13T14:33:08;30.5;34.1
79750;SHT31;69233;51.968;5.658;2023-07-13T14:35:38;30.4;36.7
79750;SHT31;69233;51.968;5.658;2023-07-13T14:38:13;30.3;36.2
79750;SHT31;69233;51.968;5.658;2023-07-13T14:40:44;30.2;36.9
79750;SHT31;69233;51.968;5.658;2023-07-13T14:43:16;30.1;37.9
79750;SHT31;69233;51.968;5.658;2023-07-13T14:45:47;30.0;38.1
79750;SHT31;69233;51.968;5.658;2023-07-13T14:48:21;29.9;39.4
79750;SHT31;69233;51.968;5.658;2023-07-13T14:50:55;29.9;39.3
79750;SHT31;69233;51.968;5.658;2023-07-13T14:53:26;29.9;38.1
79750;SHT31;69233;51.968;5.658;2023-07-13T14:55:56;29.8;37.6
79750;SHT31;69233;51.968;5.658;2023-07-13T14:58:25;29.7;38.9
79750;SHT31;69233;51.968;5.658;2023-07-13T15:00:56;29.6;38.0
79750;SHT31;69233;51.968;5.658;2023-07-13T15:03:26;29.6;36.7
79750;SHT31;69233;51.968;5.658;2023-07-13T15:05:55;29.5;37.4
79750;SHT31;69233;51.968;5.658;2023-07-13T15:08:25;29.3;37.3
79750;SHT31;69233;51.968;5.658;2023-07-13T15:10:54;29.2;36.7
79750;SHT31;69233;51.968;5.658;2023-07-13T15:13:27;29.1;38.0
79750;SHT31;69233;51.968;5.658;2023-07-13T15:15:59;28.9;38.7
79750;SHT31;69233;51.968;5.658;2023-07-13T15:18:28;28.8;39.2
79750;SHT31;69233;51.968;5.658;2023-07-13T15:20:58;28.7;38.0
79750;SHT31;69233;51.968;5.658;2023-07-13T15:23:30;28.6;38.3
79750;SHT31;69233;51.968;5.658;2023-07-13T15:26:00;28.5;38.5
79750;SHT31;69233;51.968;5.658;2023-07-13T15:28:30;28.4;36.7
79750;SHT31;69233;51.968;5.658;2023-07-13T15:31:01;28.3;38.8
79750;SHT31;69233;51.968;5.658;2023-07-13T15:33:30;28.2;38.7
79750;SHT31;69233;51.968;5.658;2023-07-13T15:36:02;28.1;39.1
79750;SHT31;69233;51.968;5.658;2023-07-13T15:38:34;28.0;39.2
79750;SHT31;69233;51.968;5.658;2023-07-13T15:41:18;27.8;39.7
79750;SHT31;69233;51.968;5.658;2023-07-13T15:43:52;27.7;38.5
79750;SHT31;69233;51.968;5.658;2023-07-13T15:46:23;27.6;40.2
79750;SHT31;69233;51.968;5.658;2023-07-13T15:48:54;27.5;41.5
79750;SHT31;69233;51.968;5.658;2023-07-13T15:51:26;27.5;41.0
79750;SHT31;69233;51.968;5.658;2023-07-13T15:53:59;27.4;42.2
79750;SHT31;69233;51.968;5.658;2023-07-13T15:56:35;27.4;43.5
79750;SHT31;69233;51.968;5.658;2023-07-13T15:59:11;27.4;43.1
79750;SHT31;69233;51.968;5.658;2023-07-13T16:01:41;27.3;42.3
79750;SHT31;69233;51.968;5.658;2023-07-13T16:04:13;27.3;42.0
79750;SHT31;69233;51.968;5.658;2023-07-13T16:06:43;27.3;42.7
79750;SHT31;69233;51.968;5.658;2023-07-13T16:09:18;27.3;42.6
79750;SHT31;69233;51.968;5.658;2023-07-13T16:11:50;27.3;41.8
79750;SHT31;69233;51.968;5.658;2023-07-13T16:14:22;27.3;41.5
79750;SHT31;69233;51.968;5.658;2023-07-13T16:16:52;27.3;41.5
79750;SHT31;69233;51.968;5.658;2023-07-13T16:19:24;27.3;40.4
79750;SHT31;69233;51.968;5.658;2023-07-13T16:21:57;27.2;40.6
79750;SHT31;69233;51.968;5.658;2023-07-13T16:24:29;27.2;40.9
79750;SHT31;69233;51.968;5.658;2023-07-13T16:26:59;27.2;40.7
79750;SHT31;69233;51.968;5.658;2023-07-13T16:29:30;27.2;40.6
79750;SHT31;69233;51.968;5.658;2023-07-13T16:32:03;27.1;41.3
79750;SHT31;69233;51.968;5.658;2023-07-13T16:34:34;27.1;39.5